sensor_id;sensor_type;location;lat;lon;timestamp;pressure;altitude;pressure_sealevel;temperature
15575;BMP180;7888;46.748;8.102;2023-02-01T00:02:18;94916.00;;;7.50
15575;BMP180;7888;46.748;8.102;2023-02-01T00:04:44;94911.00;;;7.40
15575;BMP180;7888;46.748;8.102;2023-02-01T00:07:10;94911.00;;;7.40
15575;BMP180;7888;46.748;8.102;2023-02-01T00:09:36;94920.00;;;7.40
15575;BMP180;7888;46.748;8.102;2023-02-01T00:12:02;94909.00;;;7.40
15575;BMP180;7888;46.748;8.102;2023-02-01T00:14:29;94920.00;;;7.40
15575;BMP180;7888;46.748;8.102;2023-02-01T00:16:55;94911.00;;;7.40
15575;BMP180;7888;46.748;8.102;2023-02-01T00:19:21;94911.00;;;7.40
15575;BMP180;7888;46.748;8.102;2023-02-01T00:21:46;94907.00;;;7.40
15575;BMP180;7888;46.748;8.102;2023-02-01T00:24:13;94914.00;;;7.50
15575;BMP180;7888;46.748;8.102;2023-02-01T00:26:42;94927.00;;;7.40
15575;BMP180;7888;46.748;8.102;2023-02-01T00:29:17;94912.00;;;7.40
15575;BMP180;7888;46.748;8.102;2023-02-01T00:31:44;94906.00;;;7.50
15575;BMP180;7888;46.748;8.102;2023-02-01T00:34:15;94911.00;;;7.40
15575;BMP180;7888;46.748;8.102;2023-02-01T00:36:43;94901.00;;;7.40
15575;BMP180;7888;46.748;8.102;2023-02-01T00:39:10;94908.00;;;7.40
15575;BMP180;7888;46.748;8.102;2023-02-01T00:41:36;94903.00;;;7.50
15575;BMP180;7888;46.748;8.102;2023-02-01T00:44:03;94903.00;;;7.50
15575;BMP180;7888;46.748;8.102;2023-02-01T00:46:29;94888.00;;;7.40
15575;BMP180;7888;46.748;8.102;2023-02-01T00:48:55;94902.00;;;7.40
15575;BMP180;7888;46.748;8.102;2023-02-01T00:51:25;94899.00;;;7.40
15575;BMP180;7888;46.748;8.102;2023-02-01T00:53:52;94910.00;;;7.40
15575;BMP180;7888;46.748;8.102;2023-02-01T00:56:18;94906.00;;;7.40
15575;BMP180;7888;46.748;8.102;2023-02-01T00:58:44;94899.00;;;7.40
15575;BMP180;7888;46.748;8.102;2023-02-01T01:01:25;94904.00;;;7.40
15575;BMP180;7888;46.748;8.102;2023-02-01T01:03:54;94899.00;;;7.40
15575;BMP180;7888;46.748;8.102;2023-02-01T01:06:25;94906.00;;;7.40
15575;BMP180;7888;46.748;8.102;2023-02-01T01:08:53;94902.00;;;7.40
15575;BMP180;7888;46.748;8.102;2023-02-01T01:11:24;94912.00;;;7.40
15575;BMP180;7888;46.748;8.102;2023-02-01T01:13:52;94908.00;;;7.40
15575;BMP180;7888;46.748;8.102;2023-02-01T01:16:20;94912.00;;;7.40
15575;BMP180;7888;46.748;8.102;2023-02-01T01:18:47;94911.00;;;7.40
15575;BMP180;7888;46.748;8.102;2023-02-01T01:21:15;94898.00;;;7.30
15575;BMP180;7888;46.748;8.102;2023-02-01T01:23:42;94897.00;;;7.40
15575;BMP180;7888;46.748;8.102;2023-02-01T01:26:14;94891.00;;;7.30
15575;BMP180;7888;46.748;8.102;2023-02-01T01:28:40;94891.00;;;7.30
15575;BMP180;7888;46.748;8.102;2023-02-01T01:31:11;94896.00;;;7.20
15575;BMP180;7888;46.748;8.102;2023-02-01T01:33:37;94892.00;;;7.20
15575;BMP180;7888;46.748;8.102;2023-02-01T01:36:08;94898.00;;;7.20
15575;BMP180;7888;46.748;8.102;2023-02-01T01:38:39;94894.00;;;7.20
15575;BMP180;7888;46.748;8.102;2023-02-01T01:41:06;94889.00;;;7.10
15575;BMP180;7888;46.748;8.102;2023-02-01T01:44:06;94879.00;;;7.00
15575;BMP180;7888;46.748;8.102;2023-02-01T01:46:37;94887.00;;;7.00
15575;BMP180;7888;46.748;8.102;2023-02-01T01:49:22;94890.00;;;6.90
15575;BMP180;7888;46.748;8.102;2023-02-01T01:52:07;94870.00;;;6.90
15575;BMP180;7888;46.748;8.102;2023-02-01T01:54:53;94871.00;;;6.90
15575;BMP180;7888;46.748;8.102;2023-02-01T01:57:33;94861.00;;;6.80
15575;BMP180;7888;46.748;8.102;2023-02-01T02:00:09;94868.00;;;6.80
15575;BMP180;7888;46.748;8.102;2023-02-01T02:02:37;94872.00;;;6.80
15575;BMP180;7888;46.748;8.102;2023-02-01T02:05:04;94856.00;;;6.80
15575;BMP180;7888;46.748;8.102;2023-02-01T02:07:36;94856.00;;;6.70
15575;BMP180;7888;46.748;8.102;2023-02-01T02:10:07;94848.00;;;6.70
15575;BMP180;7888;46.748;8.102;2023-02-01T02:12:39;94857.00;;;6.70
15575;BMP180;7888;46.748;8.102;2023-02-01T02:15:12;94840.00;;;6.70
15575;BMP180;7888;46.748;8.102;2023-02-01T02:18:22;94844.00;;;6.60
15575;BMP180;7888;46.748;8.102;2023-02-01T02:21:11;94843.00;;;6.60
15575;BMP180;7888;46.748;8.102;2023-02-01T02:35:21;94832.00;;;6.50
15575;BMP180;7888;46.748;8.102;2023-02-01T02:37:55;94839.00;;;6.50
15575;BMP180;7888;46.748;8.102;2023-02-01T02:40:45;94832.00;;;6.40
15575;BMP180;7888;46.748;8.102;2023-02-01T02:43:27;94825.00;;;6.40
15575;BMP180;7888;46.748;8.102;2023-02-01T02:46:31;94820.00;;;6.40
15575;BMP180;7888;46.748;8.102;2023-02-01T02:49:29;94829.00;;;6.30
15575;BMP180;7888;46.748;8.102;2023-02-01T02:52:07;94834.00;;;6.30
15575;BMP180;7888;46.748;8.102;2023-02-01T02:54:55;94821.00;;;6.30
15575;BMP180;7888;46.748;8.102;2023-02-01T02:57:35;94822.00;;;6.30
15575;BMP180;7888;46.748;8.102;2023-02-01T03:00:27;94810.00;;;6.20
15575;BMP180;7888;46.748;8.102;2023-02-01T03:03:12;94818.00;;;6.30
15575;BMP180;7888;46.748;8.102;2023-02-01T03:05:57;94817.00;;;6.20
15575;BMP180;7888;46.748;8.102;2023-02-01T03:08:26;94811.00;;;6.20
15575;BMP180;7888;46.748;8.102;2023-02-01T03:11:10;94815.00;;;6.20
15575;BMP180;7888;46.748;8.102;2023-02-01T03:16:36;94824.00;;;6.20
15575;BMP180;7888;46.748;8.102;2023-02-01T03:19:15;94820.00;;;6.10
15575;BMP180;7888;46.748;8.102;2023-02-01T03:21:54;94834.00;;;6.10
15575;BMP180;7888;46.748;8.102;2023-02-01T03:24:37;94823.00;;;6.10
15575;BMP180;7888;46.748;8.102;2023-02-01T03:27:21;94822.00;;;6.00
15575;BMP180;7888;46.748;8.102;2023-02-01T03:32:28;94836.00;;;6.00
15575;BMP180;7888;46.748;8.102;2023-02-01T03:34:55;94842.00;;;6.00
15575;BMP180;7888;46.748;8.102;2023-02-01T03:37:27;94832.00;;;6.00
15575;BMP180;7888;46.748;8.102;2023-02-01T03:40:08;94835.00;;;6.00
15575;BMP180;7888;46.748;8.102;2023-02-01T03:42:50;94836.00;;;6.00
15575;BMP180;7888;46.748;8.102;2023-02-01T03:45:38;94838.00;;;6.00
15575;BMP180;7888;46.748;8.102;2023-02-01T03:48:07;94839.00;;;6.00
15575;BMP180;7888;46.748;8.102;2023-02-01T03:50:38;94845.00;;;5.90
15575;BMP180;7888;46.748;8.102;2023-02-01T03:53:12;94838.00;;;5.90
15575;BMP180;7888;46.748;8.102;2023-02-01T03:55:41;94850.00;;;5.90
15575;BMP180;7888;46.748;8.102;2023-02-01T03:58:12;94859.00;;;5.90
15575;BMP180;7888;46.748;8.102;2023-02-01T04:00:38;94857.00;;;5.90
15575;BMP180;7888;46.748;8.102;2023-02-01T04:03:06;94864.00;;;5.90
15575;BMP180;7888;46.748;8.102;2023-02-01T04:05:33;94867.00;;;5.80
15575;BMP180;7888;46.748;8.102;2023-02-01T04:07:59;94864.00;;;5.80
15575;BMP180;7888;46.748;8.102;2023-02-01T04:10:26;94873.00;;;5.80
15575;BMP180;7888;46.748;8.102;2023-02-01T04:12:52;94873.00;;;5.80
15575;BMP180;7888;46.748;8.102;2023-02-01T04:15:18;94863.00;;;5.70
15575;BMP180;7888;46.748;8.102;2023-02-01T04:17:44;94849.00;;;5.70
15575;BMP180;7888;46.748;8.102;2023-02-01T04:20:11;94865.00;;;5.70
15575;BMP180;7888;46.748;8.102;2023-02-01T04:22:37;94871.00;;;5.70
15575;BMP180;7888;46.748;8.102;2023-02-01T04:25:03;94860.00;;;5.70
15575;BMP180;7888;46.748;8.102;2023-02-01T04:27:31;94847.00;;;5.70
15575;BMP180;7888;46.748;8.102;2023-02-01T04:29:57;94864.00;;;5.70
15575;BMP180;7888;46.748;8.102;2023-02-01T04:32:23;94853.00;;;5.70
15575;BMP180;7888;46.748;8.102;2023-02-01T04:34:48;94854.00;;;5.70
15575;BMP180;7888;46.748;8.102;2023-02-01T04:37:14;94853.00;;;5.70
15575;BMP180;7888;46.748;8.102;2023-02-01T04:39:40;94856.00;;;5.70
15575;BMP180;7888;46.748;8.102;2023-02-01T04:42:06;94858.00;;;5.60
15575;BMP180;7888;46.748;8.102;2023-02-01T04:44:32;94850.00;;;5.60
15575;BMP180;7888;46.748;8.102;2023-02-01T04:46:57;94847.00;;;5.60
15575;BMP180;7888;46.748;8.102;2023-02-01T04:49:24;94852.00;;;5.60
15575;BMP180;7888;46.748;8.102;2023-02-01T04:51:51;94848.00;;;5.60
15575;BMP180;7888;46.748;8.102;2023-02-01T04:54:17;94845.00;;;5.60
15575;BMP180;7888;46.748;8.102;2023-02-01T04:56:43;94844.00;;;5.60
15575;BMP180;7888;46.748;8.102;2023-02-01T04:59:11;94850.00;;;5.60
15575;BMP180;7888;46.748;8.102;2023-02-01T05:01:37;94837.00;;;5.50
15575;BMP180;7888;46.748;8.102;2023-02-01T05:04:03;94841.00;;;5.50
15575;BMP180;7888;46.748;8.102;2023-02-01T05:06:29;94845.00;;;5.50
15575;BMP180;7888;46.748;8.102;2023-02-01T05:08:55;94849.00;;;5.50
15575;BMP180;7888;46.748;8.102;2023-02-01T05:11:21;94849.00;;;5.50
15575;BMP180;7888;46.748;8.102;2023-02-01T05:14:05;94839.00;;;5.50
15575;BMP180;7888;46.748;8.102;2023-02-01T05:16:32;94848.00;;;5.40
15575;BMP180;7888;46.748;8.102;2023-02-01T05:18:57;94848.00;;;5.40
15575;BMP180;7888;46.748;8.102;2023-02-01T05:21:24;94853.00;;;5.40
15575;BMP180;7888;46.748;8.102;2023-02-01T05:23:50;94836.00;;;5.40
15575;BMP180;7888;46.748;8.102;2023-02-01T05:26:36;94841.00;;;5.40
15575;BMP180;7888;46.748;8.102;2023-02-01T05:29:03;94836.00;;;5.30
15575;BMP180;7888;46.748;8.102;2023-02-01T05:31:29;94857.00;;;5.40
15575;BMP180;7888;46.748;8.102;2023-02-01T05:33:54;94857.00;;;5.30
15575;BMP180;7888;46.748;8.102;2023-02-01T05:36:21;94887.00;;;5.30
15575;BMP180;7888;46.748;8.102;2023-02-01T05:38:47;94887.00;;;5.30
15575;BMP180;7888;46.748;8.102;2023-02-01T05:41:12;94903.00;;;5.30
15575;BMP180;7888;46.748;8.102;2023-02-01T05:43:38;94896.00;;;5.20
15575;BMP180;7888;46.748;8.102;2023-02-01T05:46:04;94899.00;;;5.20
15575;BMP180;7888;46.748;8.102;2023-02-01T05:48:30;94881.00;;;5.20
15575;BMP180;7888;46.748;8.102;2023-02-01T05:50:56;94889.00;;;5.10
15575;BMP180;7888;46.748;8.102;2023-02-01T05:53:22;94891.00;;;5.00
15575;BMP180;7888;46.748;8.102;2023-02-01T05:55:48;94884.00;;;5.00
15575;BMP180;7888;46.748;8.102;2023-02-01T05:58:14;94888.00;;;5.00
15575;BMP180;7888;46.748;8.102;2023-02-01T06:00:40;94905.00;;;5.00
15575;BMP180;7888;46.748;8.102;2023-02-01T06:03:07;94893.00;;;5.00
15575;BMP180;7888;46.748;8.102;2023-02-01T06:05:33;94900.00;;;5.00
15575;BMP180;7888;46.748;8.102;2023-02-01T06:07:58;94918.00;;;5.00
15575;BMP180;7888;46.748;8.102;2023-02-01T06:10:24;94926.00;;;5.00
15575;BMP180;7888;46.748;8.102;2023-02-01T06:12:50;94938.00;;;5.00
15575;BMP180;7888;46.748;8.102;2023-02-01T06:15:16;94959.00;;;5.00
15575;BMP180;7888;46.748;8.102;2023-02-01T06:17:45;94952.00;;;5.00
15575;BMP180;7888;46.748;8.102;2023-02-01T06:20:13;94960.00;;;4.90
15575;BMP180;7888;46.748;8.102;2023-02-01T06:22:40;94958.00;;;4.90
15575;BMP180;7888;46.748;8.102;2023-02-01T06:25:09;94971.00;;;4.80
15575;BMP180;7888;46.748;8.102;2023-02-01T06:27:35;94965.00;;;4.80
15575;BMP180;7888;46.748;8.102;2023-02-01T06:30:04;94957.00;;;4.80
15575;BMP180;7888;46.748;8.102;2023-02-01T06:32:30;94967.00;;;4.90
15575;BMP180;7888;46.748;8.102;2023-02-01T06:34:56;94960.00;;;4.90
15575;BMP180;7888;46.748;8.102;2023-02-01T06:37:23;94969.00;;;4.90
15575;BMP180;7888;46.748;8.102;2023-02-01T06:39:50;94965.00;;;4.90
15575;BMP180;7888;46.748;8.102;2023-02-01T06:42:16;94965.00;;;4.90
15575;BMP180;7888;46.748;8.102;2023-02-01T06:44:42;94954.00;;;4.90
15575;BMP180;7888;46.748;8.102;2023-02-01T06:47:08;94978.00;;;4.90
15575;BMP180;7888;46.748;8.102;2023-02-01T06:49:34;94978.00;;;4.90
15575;BMP180;7888;46.748;8.102;2023-02-01T06:51:59;94980.00;;;4.90
15575;BMP180;7888;46.748;8.102;2023-02-01T06:54:27;94979.00;;;4.90
15575;BMP180;7888;46.748;8.102;2023-02-01T06:56:53;94995.00;;;4.90
15575;BMP180;7888;46.748;8.102;2023-02-01T06:59:18;95005.00;;;4.90
15575;BMP180;7888;46.748;8.102;2023-02-01T07:01:44;95009.00;;;4.90
15575;BMP180;7888;46.748;8.102;2023-02-01T07:04:11;95025.00;;;4.90
15575;BMP180;7888;46.748;8.102;2023-02-01T07:06:41;95032.00;;;4.90
15575;BMP180;7888;46.748;8.102;2023-02-01T07:09:07;95034.00;;;4.90
15575;BMP180;7888;46.748;8.102;2023-02-01T07:11:33;95034.00;;;4.90
15575;BMP180;7888;46.748;8.102;2023-02-01T07:13:59;95030.00;;;4.90
15575;BMP180;7888;46.748;8.102;2023-02-01T07:16:25;95033.00;;;4.90
15575;BMP180;7888;46.748;8.102;2023-02-01T07:18:52;95038.00;;;4.90
15575;BMP180;7888;46.748;8.102;2023-02-01T07:21:19;95042.00;;;4.80
15575;BMP180;7888;46.748;8.102;2023-02-01T07:23:46;95043.00;;;4.80
15575;BMP180;7888;46.748;8.102;2023-02-01T07:26:13;95039.00;;;4.80
15575;BMP180;7888;46.748;8.102;2023-02-01T07:28:40;95045.00;;;4.80
15575;BMP180;7888;46.748;8.102;2023-02-01T07:31:15;95050.00;;;4.80
15575;BMP180;7888;46.748;8.102;2023-02-01T07:33:43;95061.00;;;4.80
15575;BMP180;7888;46.748;8.102;2023-02-01T07:36:15;95055.00;;;4.70
15575;BMP180;7888;46.748;8.102;2023-02-01T07:38:42;95058.00;;;4.80
15575;BMP180;7888;46.748;8.102;2023-02-01T07:41:09;95047.00;;;4.80
15575;BMP180;7888;46.748;8.102;2023-02-01T07:43:35;95040.00;;;4.80
15575;BMP180;7888;46.748;8.102;2023-02-01T07:46:04;95045.00;;;4.90
15575;BMP180;7888;46.748;8.102;2023-02-01T07:48:30;95048.00;;;4.90
15575;BMP180;7888;46.748;8.102;2023-02-01T07:51:03;95045.00;;;4.90
15575;BMP180;7888;46.748;8.102;2023-02-01T07:53:30;95061.00;;;5.00
15575;BMP180;7888;46.748;8.102;2023-02-01T07:55:57;95060.00;;;5.10
15575;BMP180;7888;46.748;8.102;2023-02-01T07:58:23;95047.00;;;5.10
15575;BMP180;7888;46.748;8.102;2023-02-01T08:00:49;95063.00;;;5.20
15575;BMP180;7888;46.748;8.102;2023-02-01T08:03:34;95059.00;;;5.30
15575;BMP180;7888;46.748;8.102;2023-02-01T08:06:00;95061.00;;;5.30
15575;BMP180;7888;46.748;8.102;2023-02-01T08:08:25;95064.00;;;5.50
15575;BMP180;7888;46.748;8.102;2023-02-01T08:10:57;95062.00;;;5.60
15575;BMP180;7888;46.748;8.102;2023-02-01T08:13:23;95057.00;;;5.70
15575;BMP180;7888;46.748;8.102;2023-02-01T08:15:48;95060.00;;;5.80
15575;BMP180;7888;46.748;8.102;2023-02-01T08:18:14;95051.00;;;5.90
15575;BMP180;7888;46.748;8.102;2023-02-01T08:20:42;95062.00;;;6.00
15575;BMP180;7888;46.748;8.102;2023-02-01T08:23:11;95071.00;;;6.00
15575;BMP180;7888;46.748;8.102;2023-02-01T08:25:38;95061.00;;;6.10
15575;BMP180;7888;46.748;8.102;2023-02-01T08:28:06;95058.00;;;6.20
15575;BMP180;7888;46.748;8.102;2023-02-01T08:30:32;95059.00;;;6.30
15575;BMP180;7888;46.748;8.102;2023-02-01T08:32:58;95066.00;;;6.40
15575;BMP180;7888;46.748;8.102;2023-02-01T08:35:24;95055.00;;;6.50
15575;BMP180;7888;46.748;8.102;2023-02-01T08:37:50;95054.00;;;6.50
15575;BMP180;7888;46.748;8.102;2023-02-01T08:40:17;95064.00;;;6.70
15575;BMP180;7888;46.748;8.102;2023-02-01T08:42:43;95056.00;;;6.80
15575;BMP180;7888;46.748;8.102;2023-02-01T08:45:25;95054.00;;;6.90
15575;BMP180;7888;46.748;8.102;2023-02-01T08:47:52;95053.00;;;6.90
15575;BMP180;7888;46.748;8.102;2023-02-01T08:50:19;95065.00;;;7.10
15575;BMP180;7888;46.748;8.102;2023-02-01T08:52:46;95063.00;;;7.20
15575;BMP180;7888;46.748;8.102;2023-02-01T08:55:14;95047.00;;;7.30
15575;BMP180;7888;46.748;8.102;2023-02-01T08:57:41;95065.00;;;7.40
15575;BMP180;7888;46.748;8.102;2023-02-01T09:00:11;95054.00;;;7.50
15575;BMP180;7888;46.748;8.102;2023-02-01T09:02:38;95045.00;;;7.50
15575;BMP180;7888;46.748;8.102;2023-02-01T09:05:05;95040.00;;;7.60
15575;BMP180;7888;46.748;8.102;2023-02-01T09:07:33;95040.00;;;7.70
15575;BMP180;7888;46.748;8.102;2023-02-01T09:09:59;95061.00;;;7.90
15575;BMP180;7888;46.748;8.102;2023-02-01T09:12:28;95063.00;;;8.00
15575;BMP180;7888;46.748;8.102;2023-02-01T09:14:57;95064.00;;;8.20
15575;BMP180;7888;46.748;8.102;2023-02-01T09:17:29;95076.00;;;8.20
15575;BMP180;7888;46.748;8.102;2023-02-01T09:19:55;95064.00;;;8.40
15575;BMP180;7888;46.748;8.102;2023-02-01T09:22:21;95057.00;;;8.50
15575;BMP180;7888;46.748;8.102;2023-02-01T09:24:49;95058.00;;;8.60
15575;BMP180;7888;46.748;8.102;2023-02-01T09:27:15;95066.00;;;8.80
15575;BMP180;7888;46.748;8.102;2023-02-01T09:29:41;95063.00;;;9.00
15575;BMP180;7888;46.748;8.102;2023-02-01T09:32:07;95054.00;;;9.30
15575;BMP180;7888;46.748;8.102;2023-02-01T09:34:33;95068.00;;;9.50
15575;BMP180;7888;46.748;8.102;2023-02-01T09:36:59;95073.00;;;9.70
15575;BMP180;7888;46.748;8.102;2023-02-01T09:39:25;95069.00;;;9.80
15575;BMP180;7888;46.748;8.102;2023-02-01T09:45:39;95088.00;;;9.90
15575;BMP180;7888;46.748;8.102;2023-02-01T09:48:18;95091.00;;;10.00
15575;BMP180;7888;46.748;8.102;2023-02-01T09:50:52;95087.00;;;10.10
15575;BMP180;7888;46.748;8.102;2023-02-01T09:53:37;95086.00;;;10.20
15575;BMP180;7888;46.748;8.102;2023-02-01T09:56:23;95083.00;;;10.30
15575;BMP180;7888;46.748;8.102;2023-02-01T09:59:16;95077.00;;;10.40
15575;BMP180;7888;46.748;8.102;2023-02-01T10:01:44;95063.00;;;10.60
15575;BMP180;7888;46.748;8.102;2023-02-01T10:04:13;95081.00;;;10.80
15575;BMP180;7888;46.748;8.102;2023-02-01T10:09:46;95073.00;;;11.00
15575;BMP180;7888;46.748;8.102;2023-02-01T10:15:48;95069.00;;;11.00
15575;BMP180;7888;46.748;8.102;2023-02-01T10:18:45;95069.00;;;11.00
15575;BMP180;7888;46.748;8.102;2023-02-01T10:24:41;95054.00;;;11.00
15575;BMP180;7888;46.748;8.102;2023-02-01T10:27:28;95053.00;;;11.00
15575;BMP180;7888;46.748;8.102;2023-02-01T10:30:04;95058.00;;;11.10
15575;BMP180;7888;46.748;8.102;2023-02-01T10:32:34;95040.00;;;11.20
15575;BMP180;7888;46.748;8.102;2023-02-01T10:35:21;95044.00;;;11.20
15575;BMP180;7888;46.748;8.102;2023-02-01T10:37:49;95049.00;;;11.40
15575;BMP180;7888;46.748;8.102;2023-02-01T10:40:23;95054.00;;;11.40
15575;BMP180;7888;46.748;8.102;2023-02-01T10:42:55;95044.00;;;11.40
15575;BMP180;7888;46.748;8.102;2023-02-01T10:45:28;95033.00;;;11.40
15575;BMP180;7888;46.748;8.102;2023-02-01T10:47:57;95027.00;;;11.40
15575;BMP180;7888;46.748;8.102;2023-02-01T10:50:34;95036.00;;;11.30
15575;BMP180;7888;46.748;8.102;2023-02-01T10:53:27;95030.00;;;11.20
15575;BMP180;7888;46.748;8.102;2023-02-01T10:55:56;95031.00;;;11.10
15575;BMP180;7888;46.748;8.102;2023-02-01T10:58:31;95025.00;;;11.10
15575;BMP180;7888;46.748;8.102;2023-02-01T11:01:09;95032.00;;;11.10
15575;BMP180;7888;46.748;8.102;2023-02-01T11:06:39;95018.00;;;11.10
15575;BMP180;7888;46.748;8.102;2023-02-01T11:11:53;95017.00;;;11.10
15575;BMP180;7888;46.748;8.102;2023-02-01T11:14:36;94995.00;;;11.20
15575;BMP180;7888;46.748;8.102;2023-02-01T11:20:06;94972.00;;;11.30
15575;BMP180;7888;46.748;8.102;2023-02-01T11:22:35;94978.00;;;11.40
15575;BMP180;7888;46.748;8.102;2023-02-01T11:25:08;94968.00;;;11.50
15575;BMP180;7888;46.748;8.102;2023-02-01T11:27:34;94971.00;;;11.60
15575;BMP180;7888;46.748;8.102;2023-02-01T11:30:02;94974.00;;;11.70
15575;BMP180;7888;46.748;8.102;2023-02-01T11:32:30;94964.00;;;11.70
15575;BMP180;7888;46.748;8.102;2023-02-01T11:35:02;94967.00;;;11.70
15575;BMP180;7888;46.748;8.102;2023-02-01T11:37:38;94973.00;;;11.70
15575;BMP180;7888;46.748;8.102;2023-02-01T11:43:07;94986.00;;;12.00
15575;BMP180;7888;46.748;8.102;2023-02-01T11:45:34;94981.00;;;12.10
15575;BMP180;7888;46.748;8.102;2023-02-01T11:48:15;94978.00;;;12.20
15575;BMP180;7888;46.748;8.102;2023-02-01T11:54:22;94960.00;;;12.30
15575;BMP180;7888;46.748;8.102;2023-02-01T12:00:36;94951.00;;;12.60
15575;BMP180;7888;46.748;8.102;2023-02-01T12:12:24;94947.00;;;13.00
15575;BMP180;7888;46.748;8.102;2023-02-01T12:21:02;94914.00;;;13.00
15575;BMP180;7888;46.748;8.102;2023-02-01T12:26:44;94908.00;;;13.10
15575;BMP180;7888;46.748;8.102;2023-02-01T12:43:58;94875.00;;;14.20
15575;BMP180;7888;46.748;8.102;2023-02-01T12:46:32;94878.00;;;14.60
15575;BMP180;7888;46.748;8.102;2023-02-01T12:51:47;94868.00;;;15.40
15575;BMP180;7888;46.748;8.102;2023-02-01T12:54:41;94883.00;;;15.80
15575;BMP180;7888;46.748;8.102;2023-02-01T12:57:25;94864.00;;;16.20
15575;BMP180;7888;46.748;8.102;2023-02-01T13:00:05;94867.00;;;16.60
15575;BMP180;7888;46.748;8.102;2023-02-01T13:06:01;94860.00;;;17.30
15575;BMP180;7888;46.748;8.102;2023-02-01T13:08:52;94867.00;;;17.60
15575;BMP180;7888;46.748;8.102;2023-02-01T13:11:34;94866.00;;;17.90
15575;BMP180;7888;46.748;8.102;2023-02-01T13:16:57;94859.00;;;18.30
15575;BMP180;7888;46.748;8.102;2023-02-01T13:19:49;94858.00;;;18.40
15575;BMP180;7888;46.748;8.102;2023-02-01T13:22:30;94859.00;;;18.60
15575;BMP180;7888;46.748;8.102;2023-02-01T13:25:05;94857.00;;;18.80
15575;BMP180;7888;46.748;8.102;2023-02-01T13:27:37;94852.00;;;19.10
15575;BMP180;7888;46.748;8.102;2023-02-01T13:30:20;94838.00;;;19.30
15575;BMP180;7888;46.748;8.102;2023-02-01T13:36:22;94835.00;;;19.80
15575;BMP180;7888;46.748;8.102;2023-02-01T13:39:25;94843.00;;;20.00
15575;BMP180;7888;46.748;8.102;2023-02-01T13:42:21;94837.00;;;20.20
15575;BMP180;7888;46.748;8.102;2023-02-01T13:45:20;94851.00;;;20.30
15575;BMP180;7888;46.748;8.102;2023-02-01T13:47:53;94853.00;;;20.50
15575;BMP180;7888;46.748;8.102;2023-02-01T13:50:24;94848.00;;;20.70
15575;BMP180;7888;46.748;8.102;2023-02-01T13:53:04;94850.00;;;20.80
15575;BMP180;7888;46.748;8.102;2023-02-01T13:55:40;94846.00;;;20.90
15575;BMP180;7888;46.748;8.102;2023-02-01T13:58:36;94844.00;;;21.00
15575;BMP180;7888;46.748;8.102;2023-02-01T14:03:55;94845.00;;;21.20
15575;BMP180;7888;46.748;8.102;2023-02-01T14:09:31;94844.00;;;21.30
15575;BMP180;7888;46.748;8.102;2023-02-01T14:11:58;94839.00;;;21.50
15575;BMP180;7888;46.748;8.102;2023-02-01T14:14:43;94846.00;;;21.60
15575;BMP180;7888;46.748;8.102;2023-02-01T14:17:32;94845.00;;;21.50
15575;BMP180;7888;46.748;8.102;2023-02-01T14:20:42;94848.00;;;21.50
15575;BMP180;7888;46.748;8.102;2023-02-01T14:23:20;94848.00;;;21.50
15575;BMP180;7888;46.748;8.102;2023-02-01T14:26:02;94854.00;;;21.50
15575;BMP180;7888;46.748;8.102;2023-02-01T14:28:30;94848.00;;;21.60
15575;BMP180;7888;46.748;8.102;2023-02-01T14:30:58;94847.00;;;21.60
15575;BMP180;7888;46.748;8.102;2023-02-01T14:33:27;94848.00;;;21.70
15575;BMP180;7888;46.748;8.102;2023-02-01T14:36:07;94838.00;;;21.70
15575;BMP180;7888;46.748;8.102;2023-02-01T14:38:36;94852.00;;;21.80
15575;BMP180;7888;46.748;8.102;2023-02-01T14:41:34;94844.00;;;21.70
15575;BMP180;7888;46.748;8.102;2023-02-01T14:56:07;94844.00;;;21.30
15575;BMP180;7888;46.748;8.102;2023-02-01T15:01:38;94829.00;;;21.10
15575;BMP180;7888;46.748;8.102;2023-02-01T15:04:18;94829.00;;;21.10
15575;BMP180;7888;46.748;8.102;2023-02-01T15:06:51;94829.00;;;21.00
15575;BMP180;7888;46.748;8.102;2023-02-01T15:09:36;94826.00;;;20.90
15575;BMP180;7888;46.748;8.102;2023-02-01T15:14:42;94819.00;;;20.70
15575;BMP180;7888;46.748;8.102;2023-02-01T15:17:26;94824.00;;;20.40
15575;BMP180;7888;46.748;8.102;2023-02-01T15:19:59;94830.00;;;20.30
15575;BMP180;7888;46.748;8.102;2023-02-01T15:22:27;94829.00;;;20.10
15575;BMP180;7888;46.748;8.102;2023-02-01T15:25:00;94838.00;;;19.80
15575;BMP180;7888;46.748;8.102;2023-02-01T15:27:28;94837.00;;;19.70
15575;BMP180;7888;46.748;8.102;2023-02-01T15:30:05;94839.00;;;19.50
15575;BMP180;7888;46.748;8.102;2023-02-01T15:32:35;94844.00;;;19.30
15575;BMP180;7888;46.748;8.102;2023-02-01T15:35:02;94836.00;;;19.20
15575;BMP180;7888;46.748;8.102;2023-02-01T15:37:28;94850.00;;;19.00
15575;BMP180;7888;46.748;8.102;2023-02-01T15:42:58;94857.00;;;18.70
15575;BMP180;7888;46.748;8.102;2023-02-01T15:45:32;94861.00;;;18.50
15575;BMP180;7888;46.748;8.102;2023-02-01T15:47:59;94870.00;;;18.40
15575;BMP180;7888;46.748;8.102;2023-02-01T15:50:32;94873.00;;;18.30
15575;BMP180;7888;46.748;8.102;2023-02-01T15:52:58;94878.00;;;18.10
15575;BMP180;7888;46.748;8.102;2023-02-01T15:55:54;94884.00;;;17.90
15575;BMP180;7888;46.748;8.102;2023-02-01T15:58:23;94900.00;;;17.80
15575;BMP180;7888;46.748;8.102;2023-02-01T16:00:58;94896.00;;;17.70
15575;BMP180;7888;46.748;8.102;2023-02-01T16:06:06;94914.00;;;17.50
15575;BMP180;7888;46.748;8.102;2023-02-01T16:08:33;94928.00;;;17.40
15575;BMP180;7888;46.748;8.102;2023-02-01T16:11:21;94928.00;;;17.30
15575;BMP180;7888;46.748;8.102;2023-02-01T16:13:48;94939.00;;;17.20
15575;BMP180;7888;46.748;8.102;2023-02-01T16:16:14;94949.00;;;17.10
15575;BMP180;7888;46.748;8.102;2023-02-01T16:18:41;94947.00;;;17.00
15575;BMP180;7888;46.748;8.102;2023-02-01T16:21:07;94958.00;;;16.90
15575;BMP180;7888;46.748;8.102;2023-02-01T16:23:35;94954.00;;;16.80
15575;BMP180;7888;46.748;8.102;2023-02-01T16:26:02;94954.00;;;16.60
15575;BMP180;7888;46.748;8.102;2023-02-01T16:28:29;94941.00;;;16.50
15575;BMP180;7888;46.748;8.102;2023-02-01T16:30:55;94956.00;;;16.40
15575;BMP180;7888;46.748;8.102;2023-02-01T16:33:22;94948.00;;;16.30
15575;BMP180;7888;46.748;8.102;2023-02-01T16:35:49;94953.00;;;16.10
15575;BMP180;7888;46.748;8.102;2023-02-01T16:38:18;94958.00;;;16.00
15575;BMP180;7888;46.748;8.102;2023-02-01T16:40:48;94949.00;;;15.90
15575;BMP180;7888;46.748;8.102;2023-02-01T16:45:48;94951.00;;;15.70
15575;BMP180;7888;46.748;8.102;2023-02-01T16:48:30;94938.00;;;15.50
15575;BMP180;7888;46.748;8.102;2023-02-01T16:51:00;94953.00;;;15.40
15575;BMP180;7888;46.748;8.102;2023-02-01T16:53:29;94945.00;;;15.30
15575;BMP180;7888;46.748;8.102;2023-02-01T16:55:56;94936.00;;;15.20
15575;BMP180;7888;46.748;8.102;2023-02-01T16:58:24;94947.00;;;15.10
15575;BMP180;7888;46.748;8.102;2023-02-01T17:00:51;94933.00;;;15.00
15575;BMP180;7888;46.748;8.102;2023-02-01T17:03:19;94942.00;;;14.90